Time;durP1;ratioP1;P1;durP2;ratioP2;P2;SDS_P1;SDS_P2;PMS_P1;PMS_P2;Temp;Humidity;BMP_temperature;BMP_pressure;BME280_temperature;BME280_humidity;BME280_pressure;Samples;Min_cycle;Max_cycle;Signal;HPM_P1;HPM_P2
2021/06/03 06:55:59;;;;;;;13.90;10.95;;;24.20;99.90;;;;;;5128494;27;20371;-67
2021/06/03 06:58:24;;;;;;;15.00;10.68;;;23.40;99.90;;;;;;5129792;27;20850;-68
2021/06/03 07:00:50;;;;;;;13.55;10.98;;;23.00;99.90;;;;;;5129902;28;20535;-69
2021/06/03 07:03:16;;;;;;;12.65;10.35;;;23.10;99.90;;;;;;5127213;28;20076;-69
2021/06/03 07:05:45;;;;;;;15.00;10.75;;;23.10;99.90;;;;;;5109126;28;20039;-68
2021/06/03 07:08:11;;;;;;;14.13;10.07;;;23.30;99.90;;;;;;5109131;28;20027;-68
2021/06/03 07:10:37;;;;;;;15.13;9.70;;;23.50;99.90;;;;;;5109145;28;20088;-67
2021/06/03 07:13:03;;;;;;;13.38;10.40;;;23.80;99.90;;;;;;5109325;28;20016;-67
2021/06/03 07:15:29;;;;;;;12.18;9.95;;;23.80;99.90;;;;;;5107161;28;20549;-67
2021/06/03 07:17:55;;;;;;;12.88;9.70;;;23.80;99.90;;;;;;5109054;28;20039;-66
2021/06/03 07:20:22;;;;;;;15.60;10.40;;;23.80;99.90;;;;;;5108629;28;20080;-69
2021/06/03 07:22:53;;;;;;;14.70;10.27;;;23.60;99.90;;;;;;5108878;28;20028;-68
2021/06/03 07:25:20;;;;;;;12.02;9.63;;;23.70;99.90;;;;;;5107792;28;20077;-68
2021/06/03 07:27:47;;;;;;;15.23;10.25;;;23.70;99.90;;;;;;5108632;28;20084;-68
2021/06/03 07:30:16;;;;;;;12.25;9.63;;;23.70;99.90;;;;;;5108474;28;20020;-67
2021/06/03 07:32:42;;;;;;;15.48;9.57;;;24.00;99.90;;;;;;5108662;28;20011;-67
2021/06/03 07:35:13;;;;;;;11.73;9.00;;;24.00;99.90;;;;;;5107786;28;20485;-67
2021/06/03 07:37:40;;;;;;;10.75;8.63;;;24.00;99.90;;;;;;5108234;28;20478;-68
2021/06/03 07:40:09;;;;;;;11.82;8.73;;;23.90;99.90;;;;;;5108232;28;20028;-67
2021/06/03 07:42:35;;;;;;;15.60;9.10;;;24.00;99.90;;;;;;5108786;28;20073;-67
2021/06/03 07:45:00;;;;;;;11.32;9.18;;;23.80;99.90;;;;;;5108624;28;20467;-68
2021/06/03 07:47:26;;;;;;;12.80;8.82;;;23.80;99.90;;;;;;5107721;28;20032;-67
2021/06/03 07:49:52;;;;;;;10.77;8.00;;;24.00;99.90;;;;;;5108362;28;20073;-67
2021/06/03 07:52:17;;;;;;;12.02;7.57;;;24.10;99.90;;;;;;5108018;28;20487;-66
2021/06/03 07:54:43;;;;;;;10.68;7.65;;;24.10;99.80;;;;;;5107932;28;20043;-67
2021/06/03 07:57:08;;;;;;;10.60;7.22;;;24.20;99.60;;;;;;5107581;28;20026;-67
2021/06/03 07:59:34;;;;;;;11.48;8.60;;;24.60;99.30;;;;;;5107893;28;20035;-67
2021/06/03 08:02:00;;;;;;;13.70;8.77;;;24.40;99.10;;;;;;5108315;28;20031;-67
2021/06/03 08:04:26;;;;;;;11.73;8.23;;;24.40;99.30;;;;;;5106418;28;20111;-67
2021/06/03 08:06:51;;;;;;;9.90;7.80;;;24.60;99.30;;;;;;5097080;28;20024;-68
2021/06/03 08:09:17;;;;;;;10.75;7.25;;;24.50;99.20;;;;;;5093816;28;20032;-67
2021/06/03 08:11:44;;;;;;;13.35;7.25;;;24.50;99.00;;;;;;5094418;28;20043;-66
2021/06/03 08:14:11;;;;;;;12.82;7.38;;;24.70;98.70;;;;;;5094134;28;20032;-65
2021/06/03 08:16:37;;;;;;;11.75;7.57;;;25.10;98.50;;;;;;5094196;28;20059;-65
2021/06/03 08:19:03;;;;;;;9.85;6.55;;;25.30;98.10;;;;;;5092974;28;20078;-65
2021/06/03 08:21:28;;;;;;;12.00;7.22;;;25.40;97.90;;;;;;5094009;28;20076;-66
2021/06/03 08:23:55;;;;;;;9.95;7.18;;;25.50;97.70;;;;;;5094303;28;20443;-66
2021/06/03 08:26:23;;;;;;;8.23;6.53;;;25.70;97.50;;;;;;5093788;28;20046;-66
2021/06/03 08:28:49;;;;;;;9.85;6.43;;;25.80;97.30;;;;;;5093356;28;20047;-65
2021/06/03 08:31:15;;;;;;;8.25;6.38;;;25.80;97.20;;;;;;5093562;28;20024;-66
2021/06/03 08:33:40;;;;;;;9.30;6.38;;;25.90;97.10;;;;;;5093892;28;20024;-65
2021/06/03 08:36:06;;;;;;;9.45;6.72;;;25.90;97.00;;;;;;5093574;28;20048;-64
2021/06/03 08:38:33;;;;;;;8.90;6.72;;;25.90;97.10;;;;;;5093976;28;20024;-64
2021/06/03 08:40:59;;;;;;;8.48;6.95;;;25.90;96.90;;;;;;5093623;28;20044;-64
2021/06/03 08:43:28;;;;;;;10.82;6.57;;;26.00;97.30;;;;;;5093661;28;20435;-64
2021/06/03 08:45:56;;;;;;;9.23;6.90;;;26.00;97.10;;;;;;5095855;28;20496;-64
2021/06/03 08:48:22;;;;;;;9.85;6.40;;;25.90;96.80;;;;;;5113807;28;20103;-64
2021/06/03 08:50:51;;;;;;;9.68;6.05;;;26.00;96.80;;;;;;5094484;28;20020;-65
2021/06/03 08:53:18;;;;;;;7.97;6.40;;;26.00;97.10;;;;;;5093616;28;20016;-65
2021/06/03 08:58:29;;;;;;;8.23;6.45;;;26.10;96.70;;;;;;5093235;28;20102;-65
2021/06/03 09:00:56;;;;;;;9.63;6.70;;;26.10;96.60;;;;;;5093164;28;20071;-65
2021/06/03 09:03:27;;;;;;;11.32;6.70;;;25.90;96.80;;;;;;5093056;28;20012;-65
2021/06/03 09:05:52;;;;;;;9.20;6.20;;;25.90;96.80;;;;;;5093335;28;20111;-64
2021/06/03 09:08:23;;;;;;;10.73;6.95;;;26.10;96.70;;;;;;5093070;28;20099;-65
2021/06/03 09:10:53;;;;;;;9.38;6.53;;;26.10;96.60;;;;;;5093041;28;20111;-65
2021/06/03 09:13:21;;;;;;;10.70;6.72;;;26.20;96.50;;;;;;5092773;28;20028;-64
2021/06/03 09:15:52;;;;;;;9.00;6.45;;;26.20;96.50;;;;;;5093013;28;20036;-64
2021/06/03 09:18:32;;;;;;;8.48;6.65;;;26.30;96.40;;;;;;5091913;28;20020;-65
2021/06/03 09:21:28;;;;;;;10.98;6.97;;;26.40;96.30;;;;;;5092964;28;20056;-65
2021/06/03 09:24:03;;;;;;;10.05;6.85;;;26.40;96.20;;;;;;5084363;28;20032;-64
2021/06/03 09:26:32;;;;;;;9.05;6.10;;;26.40;96.20;;;;;;5092972;28;20076;-65
2021/06/03 09:29:00;;;;;;;9.10;6.35;;;26.50;96.10;;;;;;5092689;28;20051;-64
2021/06/03 09:31:30;;;;;;;11.40;6.40;;;26.50;96.20;;;;;;5092611;28;20020;-65
2021/06/03 09:33:57;;;;;;;11.05;6.78;;;26.40;96.40;;;;;;5092660;28;20035;-64
2021/06/03 09:36:49;;;;;;;8.98;6.40;;;26.50;96.10;;;;;;5092460;28;20027;-65
2021/06/03 09:39:24;;;;;;;10.85;6.82;;;26.50;96.00;;;;;;5091940;28;20035;-66
2021/06/03 09:41:59;;;;;;;7.88;6.85;;;26.50;95.90;;;;;;5092656;28;20365;-65
2021/06/03 09:44:28;;;;;;;9.68;7.68;;;26.50;95.80;;;;;;5092437;28;20161;-63
2021/06/03 09:46:57;;;;;;;11.82;8.32;;;26.60;95.80;;;;;;5092513;28;20031;-64
2021/06/03 09:49:31;;;;;;;13.50;8.55;;;26.70;95.70;;;;;;5091845;28;20028;-64
2021/06/03 09:52:00;;;;;;;14.13;9.25;;;26.80;95.50;;;;;;5092571;28;20054;-64
2021/06/03 09:54:27;;;;;;;11.93;8.32;;;26.80;95.50;;;;;;5091998;28;20043;-63
2021/06/03 09:56:57;;;;;;;15.45;9.82;;;26.80;95.40;;;;;;5092075;28;20100;-63
2021/06/03 09:59:25;;;;;;;11.80;8.68;;;26.90;95.40;;;;;;5091715;28;20521;-63
2021/06/03 10:02:03;;;;;;;15.25;8.70;;;26.90;95.40;;;;;;5092120;28;20229;-63
2021/06/03 10:04:45;;;;;;;13.30;8.57;;;26.90;95.30;;;;;;5090955;28;20031;-66
2021/06/03 10:07:12;;;;;;;13.90;8.93;;;26.80;95.30;;;;;;5091721;28;20016;-64
2021/06/03 10:09:40;;;;;;;11.43;8.00;;;26.70;95.40;;;;;;5092110;28;20070;-65
2021/06/03 10:12:09;;;;;;;13.45;8.65;;;26.50;95.60;;;;;;5091902;28;20028;-67
2021/06/03 10:14:35;;;;;;;59.65;30.35;;;26.40;95.70;;;;;;5092164;28;20028;-67
2021/06/03 10:17:17;;;;;;;54.22;29.52;;;26.50;96.00;;;;;;5091862;28;20472;-66
2021/06/03 10:19:46;;;;;;;44.05;24.13;;;26.70;95.70;;;;;;5091992;28;20020;-67
2021/06/03 10:22:24;;;;;;;29.23;17.38;;;26.70;95.40;;;;;;5091636;28;20023;-67
2021/06/03 10:25:00;;;;;;;35.50;18.98;;;26.60;95.30;;;;;;5096081;28;20460;-67
2021/06/03 10:27:35;;;;;;;32.40;17.27;;;26.60;95.40;;;;;;5098772;28;20031;-65
2021/06/03 10:30:07;;;;;;;27.27;16.27;;;26.60;95.80;;;;;;5096248;28;20042;-68
2021/06/03 10:32:33;;;;;;;23.23;13.27;;;26.60;95.50;;;;;;5101664;28;20024;-66
2021/06/03 10:34:59;;;;;;;21.85;13.00;;;26.50;95.30;;;;;;5097283;28;20046;-66
2021/06/03 10:37:26;;;;;;;19.33;10.55;;;26.50;95.40;;;;;;5101958;28;20498;-66
2021/06/03 10:39:55;;;;;;;13.13;9.95;;;26.40;95.20;;;;;;5112048;28;20107;-67
2021/06/03 10:42:22;;;;;;;15.27;9.77;;;26.40;95.00;;;;;;5094936;28;20116;-67
2021/06/03 10:44:48;;;;;;;16.30;9.15;;;26.40;95.00;;;;;;5090033;28;20032;-67
2021/06/03 10:47:15;;;;;;;12.10;8.63;;;26.50;94.90;;;;;;5091162;28;20468;-66
2021/06/03 10:49:42;;;;;;;11.75;8.48;;;26.50;94.90;;;;;;5091636;28;20023;-66
2021/06/03 10:52:10;;;;;;;12.82;8.35;;;26.50;94.70;;;;;;5090977;28;20028;-66
2021/06/03 10:54:52;;;;;;;10.48;8.00;;;26.40;94.70;;;;;;5091364;28;20028;-66
2021/06/03 10:57:21;;;;;;;13.18;7.90;;;26.50;94.70;;;;;;5091501;28;20024;-66
2021/06/03 10:59:47;;;;;;;10.50;7.57;;;26.50;94.70;;;;;;5091563;28;20493;-67
2021/06/03 11:02:13;;;;;;;11.52;7.10;;;26.50;94.50;;;;;;5090645;28;20040;-67
2021/06/03 11:04:41;;;;;;;12.18;7.55;;;26.40;94.50;;;;;;5091202;28;20028;-67
2021/06/03 11:07:09;;;;;;;9.52;7.18;;;26.40;94.30;;;;;;5091036;28;20025;-67
2021/06/03 11:09:44;;;;;;;9.80;7.30;;;26.50;94.40;;;;;;5091416;28;20024;-66
2021/06/03 11:12:17;;;;;;;8.80;6.65;;;26.50;94.10;;;;;;5090626;28;20030;-66
2021/06/03 11:15:07;;;;;;;11.15;6.32;;;26.40;94.00;;;;;;5091010;28;20098;-67
2021/06/03 11:17:54;;;;;;;13.13;7.22;;;26.50;94.10;;;;;;5091798;28;20028;-66
2021/06/03 11:20:43;;;;;;;11.57;7.15;;;26.50;93.80;;;;;;5091121;28;20089;-67
2021/06/03 11:23:33;;;;;;;9.73;6.95;;;26.40;93.90;;;;;;5090758;28;20024;-67
2021/06/03 11:25:59;;;;;;;9.88;6.75;;;26.50;94.10;;;;;;5095007;28;20039;-66
2021/06/03 11:28:24;;;;;;;9.15;6.72;;;26.40;94.20;;;;;;5099265;28;20411;-66
2021/06/03 11:30:53;;;;;;;10.43;6.70;;;26.40;94.10;;;;;;5101730;28;20497;-63
2021/06/03 11:33:19;;;;;;;11.80;6.80;;;26.30;94.30;;;;;;5096466;28;20024;-63
2021/06/03 11:35:45;;;;;;;11.55;6.95;;;26.30;94.30;;;;;;5091220;28;20085;-64
2021/06/03 11:38:10;;;;;;;7.93;6.60;;;26.40;94.50;;;;;;5089659;28;20060;-64
2021/06/03 11:40:43;;;;;;;9.20;6.85;;;26.30;94.40;;;;;;5095009;28;20487;-63
2021/06/03 11:43:11;;;;;;;8.27;6.45;;;26.10;94.70;;;;;;5093958;28;20046;-64
2021/06/03 11:45:40;;;;;;;8.48;5.95;;;26.00;94.90;;;;;;5092769;28;20028;-64
2021/06/03 11:48:09;;;;;;;8.57;6.15;;;26.10;95.00;;;;;;5110882;28;20425;-63
2021/06/03 11:50:41;;;;;;;9.88;6.05;;;26.00;95.00;;;;;;5096944;28;20023;-63
2021/06/03 11:53:08;;;;;;;9.25;6.43;;;26.10;95.00;;;;;;5094542;28;20559;-63
2021/06/03 11:55:42;;;;;;;9.70;6.45;;;26.00;95.00;;;;;;5095231;28;20047;-65
2021/06/03 11:58:41;;;;;;;8.40;6.28;;;25.90;95.10;;;;;;5094691;28;20027;-64
2021/06/03 12:01:09;;;;;;;7.63;6.18;;;26.00;95.30;;;;;;5061877;28;20435;-64
2021/06/03 12:03:39;;;;;;;8.73;6.50;;;26.30;95.20;;;;;;5081329;28;20023;-63
2021/06/03 12:06:32;;;;;;;9.55;6.30;;;26.40;95.00;;;;;;5095014;28;20039;-64
2021/06/03 12:09:00;;;;;;;8.40;6.37;;;26.50;95.30;;;;;;5093621;28;20685;-64
2021/06/03 12:11:36;;;;;;;7.82;6.25;;;26.60;94.80;;;;;;5093596;28;20040;-63
2021/06/03 12:14:08;;;;;;;9.93;6.20;;;26.70;94.80;;;;;;5094245;28;20502;-64
2021/06/03 12:16:37;;;;;;;7.93;6.07;;;26.70;94.90;;;;;;5094366;28;20419;-65
2021/06/03 12:19:08;;;;;;;6.53;5.80;;;26.80;94.80;;;;;;5094442;28;20024;-64
2021/06/03 12:21:34;;;;;;;8.45;6.28;;;26.80;94.90;;;;;;5094602;28;20028;-64
2021/06/03 12:23:59;;;;;;;8.52;6.57;;;26.80;94.90;;;;;;5094120;28;20027;-64
2021/06/03 12:26:25;;;;;;;7.13;6.43;;;26.80;94.90;;;;;;5093598;28;20046;-64
2021/06/03 12:28:51;;;;;;;7.25;6.28;;;26.80;94.80;;;;;;5094265;28;20372;-64
2021/06/03 12:31:23;;;;;;;6.70;5.80;;;26.80;94.80;;;;;;5093765;28;20031;-64
2021/06/03 12:33:49;;;;;;;7.88;5.97;;;26.80;94.90;;;;;;5093643;28;20107;-64
2021/06/03 12:36:15;;;;;;;7.43;5.90;;;26.80;95.00;;;;;;5093658;28;20081;-65
2021/06/03 12:38:47;;;;;;;8.35;6.00;;;26.80;95.10;;;;;;5094050;28;20024;-65
2021/06/03 12:41:22;;;;;;;8.00;5.68;;;26.80;95.10;;;;;;5093675;28;20051;-66
2021/06/03 12:44:01;;;;;;;7.93;6.03;;;26.80;95.10;;;;;;5093413;28;20020;-65
2021/06/03 12:46:32;;;;;;;7.07;6.10;;;26.80;95.10;;;;;;5093235;28;20578;-66
2021/06/03 12:49:04;;;;;;;7.05;5.85;;;26.70;95.30;;;;;;5093910;28;20028;-64
2021/06/03 12:51:30;;;;;;;8.68;6.13;;;26.60;95.30;;;;;;5094091;28;20513;-66
2021/06/03 12:53:55;;;;;;;7.95;6.55;;;26.60;95.80;;;;;;5093226;28;20036;-66
2021/06/03 12:56:23;;;;;;;7.03;6.20;;;26.70;95.50;;;;;;5093247;28;20035;-65
2021/06/03 12:58:53;;;;;;;8.18;5.90;;;26.80;95.60;;;;;;5093399;28;20095;-66
2021/06/03 13:01:20;;;;;;;6.72;6.03;;;26.70;95.40;;;;;;5093044;28;20039;-65
2021/06/03 13:03:54;;;;;;;6.93;6.32;;;26.70;95.50;;;;;;5093367;28;20016;-65
2021/06/03 13:06:20;;;;;;;7.35;6.50;;;26.70;95.70;;;;;;5092985;28;20028;-65
2021/06/03 13:08:52;;;;;;;8.52;6.10;;;26.80;95.70;;;;;;5093358;28;20073;-65
2021/06/03 13:11:23;;;;;;;7.65;6.00;;;26.80;95.70;;;;;;5092635;28;20030;-64
2021/06/03 13:13:49;;;;;;;7.05;6.35;;;26.80;95.70;;;;;;5093002;28;20119;-64
2021/06/03 13:16:25;;;;;;;6.28;5.68;;;26.80;95.80;;;;;;5092921;28;20491;-64
2021/06/03 13:18:51;;;;;;;6.43;5.80;;;26.90;95.80;;;;;;5093248;28;20028;-66
2021/06/03 13:21:17;;;;;;;6.55;5.90;;;26.90;95.70;;;;;;5092642;28;20025;-65
2021/06/03 13:23:42;;;;;;;7.45;6.07;;;26.90;95.90;;;;;;5092931;28;20027;-65
2021/06/03 13:26:16;;;;;;;6.40;5.63;;;27.00;96.10;;;;;;5092909;28;20035;-64
2021/06/03 13:28:41;;;;;;;7.30;6.50;;;27.00;95.80;;;;;;5092951;28;20490;-65
2021/06/03 13:31:09;;;;;;;6.63;5.63;;;27.10;95.80;;;;;;5112325;27;20036;-64
2021/06/03 13:33:35;;;;;;;7.03;6.32;;;27.10;95.80;;;;;;5080501;28;20060;-62
2021/06/03 13:36:07;;;;;;;7.82;7.03;;;27.20;95.70;;;;;;5093069;28;20062;-66
2021/06/03 13:38:45;;;;;;;6.63;5.93;;;27.20;95.70;;;;;;5092994;28;20571;-64
2021/06/03 13:41:13;;;;;;;7.03;6.25;;;27.20;95.70;;;;;;5092305;28;20035;-63
2021/06/03 13:43:40;;;;;;;7.40;6.70;;;27.20;95.70;;;;;;5092546;28;20472;-64
2021/06/03 13:46:12;;;;;;;7.45;6.75;;;27.20;95.80;;;;;;5092268;28;20040;-62
2021/06/03 13:48:42;;;;;;;6.82;6.18;;;27.30;95.80;;;;;;5092622;28;20058;-64
2021/06/03 13:51:18;;;;;;;7.03;6.32;;;27.30;95.70;;;;;;5092001;28;20417;-64
2021/06/03 13:53:46;;;;;;;6.97;6.38;;;27.40;95.60;;;;;;5092025;28;20107;-65
2021/06/03 13:56:16;;;;;;;6.85;6.25;;;27.40;95.70;;;;;;5091906;28;20039;-64
2021/06/03 13:58:46;;;;;;;6.88;6.28;;;27.50;95.50;;;;;;5091641;28;20055;-67
2021/06/03 14:01:29;;;;;;;7.15;6.40;;;27.40;95.50;;;;;;5091626;28;20441;-67
2021/06/03 14:04:03;;;;;;;8.05;5.50;;;27.50;95.50;;;;;;5091704;28;20365;-66
2021/06/03 14:06:40;;;;;;;6.25;5.40;;;27.40;95.20;;;;;;5091776;28;20024;-67
2021/06/03 14:09:24;;;;;;;6.43;5.75;;;27.30;95.20;;;;;;5090190;28;20022;-69
2021/06/03 14:14:34;;;;;;;6.80;5.88;;;27.30;95.20;;;;;;5089976;28;20639;-67
2021/06/03 14:17:09;;;;;;;7.10;5.97;;;27.20;95.20;;;;;;5090041;28;20040;-67
2021/06/03 14:19:40;;;;;;;6.40;5.80;;;27.20;95.20;;;;;;5090537;28;20024;-64
2021/06/03 14:22:22;;;;;;;6.50;5.90;;;27.20;95.20;;;;;;5090720;28;20031;-66
2021/06/03 14:24:56;;;;;;;8.18;6.38;;;27.20;95.20;;;;;;5091838;28;20059;-66
2021/06/03 14:27:33;;;;;;;6.63;5.90;;;27.20;95.20;;;;;;5091642;28;20032;-66
2021/06/03 14:30:12;;;;;;;6.78;5.65;;;27.10;95.40;;;;;;5091465;28;20024;-64
2021/06/03 14:32:58;;;;;;;7.75;6.22;;;27.10;95.30;;;;;;5091516;28;20042;-65
2021/06/03 14:35:34;;;;;;;6.63;5.93;;;27.10;95.30;;;;;;5090605;28;20115;-65
2021/06/03 14:38:00;;;;;;;7.93;6.07;;;27.10;95.20;;;;;;5091794;28;20035;-66
2021/06/03 14:40:30;;;;;;;7.95;6.35;;;27.10;95.30;;;;;;5091244;28;20020;-62
2021/06/03 14:43:09;;;;;;;9.45;6.40;;;27.10;95.30;;;;;;5091165;28;20414;-65
2021/06/03 14:45:37;;;;;;;6.00;5.40;;;27.10;95.30;;;;;;5091726;28;20075;-66
2021/06/03 14:48:04;;;;;;;8.10;6.00;;;27.00;95.30;;;;;;5091728;28;20016;-63
2021/06/03 14:50:33;;;;;;;8.88;6.13;;;27.00;95.30;;;;;;5101227;28;20016;-66
2021/06/03 14:53:01;;;;;;;6.60;5.88;;;27.00;95.30;;;;;;5094834;28;20102;-65
2021/06/03 14:55:32;;;;;;;8.07;6.32;;;27.10;95.30;;;;;;5091072;28;20031;-67
2021/06/03 14:57:59;;;;;;;6.85;6.22;;;27.10;95.30;;;;;;5091579;28;20080;-65
2021/06/03 15:00:31;;;;;;;6.80;6.13;;;27.10;95.30;;;;;;5091277;28;20457;-65
2021/06/03 15:02:57;;;;;;;7.75;6.65;;;27.20;95.30;;;;;;5091443;28;20059;-65
2021/06/03 15:05:24;;;;;;;8.48;6.57;;;27.10;95.30;;;;;;5091166;28;20492;-66
2021/06/03 15:07:51;;;;;;;7.25;5.85;;;27.10;95.30;;;;;;5091338;28;20055;-66
2021/06/03 15:10:19;;;;;;;7.97;6.50;;;27.10;95.40;;;;;;5091135;28;20035;-66
2021/06/03 15:12:45;;;;;;;8.07;6.65;;;27.20;95.30;;;;;;5091031;28;20468;-66
2021/06/03 15:15:14;;;;;;;7.35;6.47;;;27.20;95.20;;;;;;5091046;28;20024;-66
2021/06/03 15:17:41;;;;;;;7.70;6.68;;;27.20;95.20;;;;;;5095336;28;20482;-65
2021/06/03 15:20:12;;;;;;;8.00;6.60;;;27.20;95.20;;;;;;5095124;28;20108;-66
2021/06/03 15:22:38;;;;;;;7.32;6.55;;;27.20;95.20;;;;;;5094900;28;20025;-67
2021/06/03 15:25:07;;;;;;;7.63;6.07;;;27.20;95.30;;;;;;5095382;28;20043;-66
2021/06/03 15:27:33;;;;;;;7.32;6.20;;;27.20;95.30;;;;;;5095493;28;20016;-67
2021/06/03 15:29:59;;;;;;;6.97;6.28;;;27.20;95.40;;;;;;5095216;28;20069;-65
2021/06/03 15:32:25;;;;;;;9.02;7.00;;;27.20;95.30;;;;;;5094628;28;20032;-66
2021/06/03 15:34:51;;;;;;;6.82;6.20;;;27.20;95.20;;;;;;5095176;28;20090;-65
2021/06/03 15:37:16;;;;;;;8.32;7.50;;;27.20;95.30;;;;;;5094732;28;20059;-67
2021/06/03 15:39:42;;;;;;;8.00;6.75;;;27.30;95.20;;;;;;5095168;28;20024;-69
2021/06/03 15:42:10;;;;;;;9.45;6.18;;;27.30;95.20;;;;;;5094452;28;20016;-66
2021/06/03 15:44:36;;;;;;;7.65;6.28;;;27.30;95.20;;;;;;5094722;28;20542;-66
2021/06/03 15:47:03;;;;;;;7.60;6.55;;;27.30;95.20;;;;;;5095180;28;20028;-67
2021/06/03 15:49:30;;;;;;;7.53;6.38;;;27.20;95.30;;;;;;5094522;28;20024;-67
2021/06/03 15:52:04;;;;;;;7.43;6.72;;;27.20;95.20;;;;;;5094627;28;20031;-67
2021/06/03 15:54:30;;;;;;;9.23;7.05;;;27.20;95.00;;;;;;5094676;28;20111;-67
2021/06/03 15:56:56;;;;;;;9.95;7.43;;;27.30;94.90;;;;;;5093555;28;20430;-67
2021/06/03 15:59:22;;;;;;;9.43;7.00;;;27.30;94.60;;;;;;5094332;28;20062;-67
2021/06/03 16:01:47;;;;;;;7.55;6.43;;;27.30;94.80;;;;;;5094507;28;20468;-67
2021/06/03 16:04:13;;;;;;;7.47;6.68;;;27.40;94.40;;;;;;5127107;27;20084;-67
2021/06/03 16:06:39;;;;;;;7.68;6.40;;;27.40;94.30;;;;;;5094523;28;20024;-66
2021/06/03 16:09:05;;;;;;;8.50;6.28;;;27.20;94.70;;;;;;5093953;28;20082;-66
2021/06/03 16:11:30;;;;;;;6.93;6.22;;;27.20;95.00;;;;;;5094698;28;20388;-67
2021/06/03 16:13:56;;;;;;;6.68;5.90;;;27.20;95.00;;;;;;5094403;28;20456;-67
2021/06/03 16:16:22;;;;;;;7.03;6.30;;;27.30;94.60;;;;;;5093693;28;20040;-64
2021/06/03 16:18:47;;;;;;;7.93;5.68;;;27.30;93.90;;;;;;5093045;28;20349;-66
2021/06/03 16:21:13;;;;;;;6.57;5.93;;;27.30;94.10;;;;;;5093703;28;20083;-67
2021/06/03 16:23:38;;;;;;;6.07;5.47;;;27.30;94.10;;;;;;5094087;28;20020;-67
2021/06/03 16:26:04;;;;;;;5.55;5.05;;;27.20;94.50;;;;;;5094392;28;20400;-65
2021/06/03 16:28:30;;;;;;;6.15;5.55;;;27.20;94.70;;;;;;5102457;28;20024;-64
2021/06/03 16:30:56;;;;;;;5.60;5.00;;;27.20;94.80;;;;;;5093853;28;20039;-63
2021/06/03 16:33:23;;;;;;;5.93;4.85;;;27.30;94.80;;;;;;5093168;28;20056;-71
2021/06/03 16:35:50;;;;;;;7.40;5.22;;;27.20;94.30;;;;;;5093970;28;20030;-64
2021/06/03 16:38:19;;;;;;;5.47;4.95;;;27.30;94.90;;;;;;5093648;28;20460;-63
2021/06/03 16:40:46;;;;;;;6.03;4.78;;;27.30;95.00;;;;;;5081483;28;20435;-64
2021/06/03 16:43:16;;;;;;;5.97;5.35;;;27.40;95.20;;;;;;5093669;28;20380;-64
2021/06/03 16:45:42;;;;;;;5.88;5.28;;;27.50;95.40;;;;;;5093848;28;20119;-68
2021/06/03 16:48:08;;;;;;;6.50;5.90;;;27.50;95.40;;;;;;5093453;28;20066;-64
2021/06/03 16:50:34;;;;;;;9.05;5.90;;;27.50;95.50;;;;;;5093774;28;20024;-62
2021/06/03 16:53:01;;;;;;;7.03;5.60;;;27.60;95.70;;;;;;5093699;28;20038;-71
2021/06/03 16:55:30;;;;;;;9.45;5.70;;;27.80;95.70;;;;;;5119098;27;20085;-63
2021/06/03 16:57:57;;;;;;;6.63;6.03;;;27.70;95.80;;;;;;5076085;28;20111;-68
2021/06/03 17:00:25;;;;;;;6.38;5.28;;;27.60;95.90;;;;;;5093247;28;20482;-70
2021/06/03 17:02:53;;;;;;;6.72;5.60;;;27.60;96.00;;;;;;5093452;28;20047;-68
2021/06/03 17:05:19;;;;;;;6.97;5.28;;;27.70;96.20;;;;;;5094220;28;20495;-68
2021/06/03 17:07:45;;;;;;;7.93;5.85;;;27.60;96.50;;;;;;5092892;28;20028;-65
2021/06/03 17:10:11;;;;;;;7.55;5.35;;;27.50;96.40;;;;;;5092918;28;20038;-67
2021/06/03 17:12:37;;;;;;;6.95;5.68;;;27.40;96.40;;;;;;5091591;28;20020;-68
2021/06/03 17:15:06;;;;;;;5.53;4.90;;;27.40;96.40;;;;;;5093412;28;20035;-68
2021/06/03 17:17:32;;;;;;;6.25;4.88;;;27.30;96.40;;;;;;5093676;28;20024;-67
2021/06/03 17:19:57;;;;;;;7.47;5.05;;;27.30;96.30;;;;;;5093176;28;20035;-64
2021/06/03 17:22:23;;;;;;;5.90;5.20;;;27.30;96.30;;;;;;5092316;28;20020;-67
2021/06/03 17:24:49;;;;;;;5.50;4.90;;;27.30;96.20;;;;;;5092867;28;20032;-66
2021/06/03 17:27:14;;;;;;;6.53;5.90;;;27.30;96.20;;;;;;5092698;28;20027;-68
2021/06/03 17:29:40;;;;;;;5.70;4.68;;;27.30;96.20;;;;;;5092827;28;20464;-69
2021/06/03 17:32:06;;;;;;;6.95;5.65;;;27.30;96.10;;;;;;5092412;28;20031;-68
2021/06/03 17:34:32;;;;;;;6.57;5.32;;;27.30;96.10;;;;;;5093021;28;20065;-69
2021/06/03 17:36:58;;;;;;;6.68;5.95;;;27.30;96.10;;;;;;5092813;28;20107;-69
2021/06/03 17:39:23;;;;;;;5.80;5.30;;;27.30;96.10;;;;;;5091699;28;20031;-68
2021/06/03 17:41:49;;;;;;;7.07;5.55;;;27.30;96.00;;;;;;5091383;28;20024;-66
2021/06/03 17:44:14;;;;;;;6.47;5.07;;;27.30;96.10;;;;;;5092330;28;20111;-68
2021/06/03 17:46:40;;;;;;;5.07;4.65;;;27.30;96.10;;;;;;5092429;28;20038;-68
2021/06/03 17:49:06;;;;;;;6.57;5.97;;;27.30;96.10;;;;;;5092332;28;20032;-68
2021/06/03 17:51:32;;;;;;;7.63;5.07;;;27.30;96.10;;;;;;5092852;28;20035;-67
2021/06/03 17:53:59;;;;;;;6.63;5.68;;;27.30;96.10;;;;;;5091957;28;20089;-80
2021/06/03 17:56:25;;;;;;;6.00;5.13;;;27.30;96.10;;;;;;5092143;28;20325;-73
2021/06/03 17:58:51;;;;;;;7.45;5.50;;;27.30;96.00;;;;;;5092277;28;20028;-63
2021/06/03 18:01:17;;;;;;;6.05;5.20;;;27.30;95.90;;;;;;5092118;28;20020;-62
2021/06/03 18:03:43;;;;;;;6.05;5.28;;;27.30;95.90;;;;;;5090539;28;20484;-63
2021/06/03 18:06:09;;;;;;;6.30;5.18;;;27.30;95.90;;;;;;5071782;28;20078;-63
2021/06/03 18:08:35;;;;;;;5.97;5.45;;;27.30;95.90;;;;;;5072001;28;20052;-65
2021/06/03 18:11:01;;;;;;;6.07;5.38;;;27.30;95.90;;;;;;5078393;28;20050;-62
2021/06/03 18:13:26;;;;;;;6.50;5.65;;;27.30;95.90;;;;;;5091874;28;20024;-64
2021/06/03 18:15:53;;;;;;;5.93;5.35;;;27.30;95.80;;;;;;5091874;28;20034;-65
2021/06/03 18:18:19;;;;;;;5.88;5.28;;;27.30;95.80;;;;;;5092007;28;20024;-62
2021/06/03 18:20:44;;;;;;;7.45;5.60;;;27.30;95.80;;;;;;5091760;28;20020;-62
2021/06/03 18:23:11;;;;;;;7.07;6.05;;;27.30;95.20;;;;;;5091770;28;20114;-64
2021/06/03 18:25:39;;;;;;;7.80;5.80;;;27.20;94.60;;;;;;5091923;28;20044;-62
2021/06/03 18:28:05;;;;;;;7.82;5.88;;;27.20;94.40;;;;;;5092147;28;20099;-62
2021/06/03 18:30:32;;;;;;;9.07;5.95;;;27.10;94.10;;;;;;5091754;28;20364;-60
2021/06/03 18:32:59;;;;;;;7.05;5.38;;;27.00;94.00;;;;;;5091623;28;20471;-65
2021/06/03 18:35:27;;;;;;;8.20;5.63;;;27.00;93.20;;;;;;5091571;28;20024;-67
2021/06/03 18:37:54;;;;;;;6.28;5.45;;;26.90;92.60;;;;;;5111998;28;20015;-66
2021/06/03 18:40:20;;;;;;;7.15;6.00;;;26.90;92.50;;;;;;5097215;28;20448;-67
2021/06/03 18:42:47;;;;;;;8.52;6.68;;;26.90;92.70;;;;;;5090428;28;20419;-66
2021/06/03 18:45:19;;;;;;;9.00;6.32;;;26.80;92.50;;;;;;5091315;28;20036;-65
2021/06/03 18:47:46;;;;;;;9.23;6.05;;;26.80;92.70;;;;;;5091597;28;20020;-65
2021/06/03 18:50:14;;;;;;;7.65;6.15;;;26.80;92.80;;;;;;5090571;28;20024;-65
2021/06/03 18:52:40;;;;;;;8.38;6.07;;;26.80;92.70;;;;;;5091452;28;20020;-66
2021/06/03 18:55:08;;;;;;;7.82;6.03;;;26.80;92.90;;;;;;5090970;28;20043;-68
2021/06/03 18:57:34;;;;;;;8.65;6.15;;;26.70;92.90;;;;;;5091917;28;20074;-68
2021/06/03 19:00:00;;;;;;;8.52;6.57;;;26.70;92.70;;;;;;5091503;28;20036;-65
2021/06/03 19:02:26;;;;;;;8.00;6.38;;;26.60;92.90;;;;;;5091225;28;20494;-67
2021/06/03 19:04:52;;;;;;;9.25;6.65;;;26.50;93.30;;;;;;5091569;28;20032;-67
2021/06/03 19:07:17;;;;;;;10.98;6.93;;;26.40;93.10;;;;;;5091417;28;20035;-69
2021/06/03 19:09:43;;;;;;;8.80;6.43;;;26.40;93.20;;;;;;5090864;28;20032;-68
2021/06/03 19:12:09;;;;;;;8.25;7.40;;;26.40;93.20;;;;;;5090878;28;20028;-67
2021/06/03 19:14:35;;;;;;;9.82;6.82;;;26.30;93.20;;;;;;5109063;28;20023;-66
2021/06/03 19:17:02;;;;;;;11.05;7.15;;;26.30;93.30;;;;;;5111777;28;20491;-68
2021/06/03 19:19:30;;;;;;;9.98;6.45;;;26.30;93.30;;;;;;5108255;28;20127;-68
2021/06/03 19:21:55;;;;;;;10.20;7.10;;;26.30;93.30;;;;;;5091202;28;20056;-68
2021/06/03 19:24:21;;;;;;;9.23;7.13;;;26.20;93.40;;;;;;5090888;28;20497;-68
2021/06/03 19:26:47;;;;;;;11.13;7.38;;;26.20;93.50;;;;;;5091205;28;20476;-68
2021/06/03 19:29:12;;;;;;;9.95;7.15;;;26.10;93.40;;;;;;5090549;28;20386;-65
2021/06/03 19:31:40;;;;;;;10.45;7.40;;;26.00;93.50;;;;;;5091117;28;20059;-68
2021/06/03 19:34:06;;;;;;;9.30;6.95;;;26.00;93.50;;;;;;5090787;28;20012;-68
2021/06/03 19:36:32;;;;;;;11.57;7.82;;;25.90;93.60;;;;;;5091298;28;20026;-67
2021/06/03 19:38:57;;;;;;;9.82;7.07;;;26.00;93.70;;;;;;5090943;28;20480;-68
2021/06/03 19:41:23;;;;;;;10.40;8.18;;;25.90;93.70;;;;;;5090765;28;20024;-68
2021/06/03 19:43:49;;;;;;;11.73;8.00;;;25.90;93.80;;;;;;5091060;28;20069;-66
2021/06/03 19:46:14;;;;;;;10.82;7.90;;;25.80;93.80;;;;;;5090693;28;20036;-66
2021/06/03 19:48:40;;;;;;;10.07;7.25;;;25.70;93.80;;;;;;5090717;28;20028;-63
2021/06/03 19:51:06;;;;;;;8.93;6.85;;;25.70;93.90;;;;;;5090830;28;20403;-65